createdAt,value
2018-02-20T00:00:42.025Z,19.12
2018-02-20T00:01:42.011Z,19.10
2018-02-20T00:02:42.002Z,19.15
2018-02-20T00:03:41.996Z,19.17
2018-02-20T00:04:42.008Z,19.16
2018-02-20T00:05:41.991Z,19.17
2018-02-20T00:06:41.986Z,19.17
2018-02-20T00:07:41.989Z,19.30
2018-02-20T00:08:41.981Z,19.16
2018-02-20T00:09:41.972Z,19.27
2018-02-20T00:10:41.967Z,19.24
2018-02-20T00:11:41.961Z,19.24
2018-02-20T00:12:41.958Z,19.30
2018-02-20T00:13:41.948Z,19.30
2018-02-20T00:14:41.944Z,19.30
2018-02-20T00:15:41.931Z,19.16
2018-02-20T00:16:41.928Z,19.28
2018-02-20T00:17:41.933Z,19.23
2018-02-20T00:18:41.926Z,19.30
2018-02-20T00:19:41.913Z,19.23
2018-02-20T00:20:41.908Z,19.21
2018-02-20T00:21:41.910Z,19.25
2018-02-20T00:22:41.898Z,19.20
2018-02-20T00:23:41.884Z,19.21
2018-02-20T00:24:41.895Z,19.25
2018-02-20T00:25:41.884Z,19.16
2018-02-20T00:26:41.877Z,19.23
2018-02-20T00:27:41.864Z,19.28
2018-02-20T00:28:41.872Z,19.21
2018-02-20T00:29:41.863Z,19.15
2018-02-20T00:30:41.857Z,19.16
2018-02-20T00:31:41.838Z,19.16
2018-02-20T00:32:41.845Z,19.15
2018-02-20T00:33:41.837Z,19.21
2018-02-20T00:34:41.822Z,19.12
2018-02-20T00:35:41.822Z,19.15
2018-02-20T00:36:41.817Z,19.12
2018-02-20T00:37:41.824Z,19.20
2018-02-20T00:38:41.809Z,19.20
2018-02-20T00:39:41.803Z,19.17
2018-02-20T00:40:41.809Z,19.13
2018-02-20T00:41:41.803Z,19.20
2018-02-20T00:42:41.783Z,19.15
2018-02-20T00:43:41.786Z,19.15
2018-02-20T00:44:41.782Z,19.17
2018-02-20T00:45:41.784Z,19.10
2018-02-20T00:46:41.758Z,19.20
2018-02-20T00:47:41.765Z,19.12
2018-02-20T00:48:41.764Z,19.17
2018-02-20T00:49:41.755Z,19.05
2018-02-20T00:50:41.737Z,19.05
2018-02-20T00:51:41.739Z,19.05
2018-02-20T00:52:41.738Z,19.05
2018-02-20T00:53:41.740Z,19.09
2018-02-20T00:54:41.723Z,19.10
2018-02-20T00:55:41.714Z,19.09
2018-02-20T00:56:41.710Z,19.07
2018-02-20T00:57:41.714Z,19.07
2018-02-20T00:58:41.704Z,19.02
2018-02-20T00:59:41.699Z,19.10
2018-02-20T01:00:41.692Z,19.05
2018-02-20T01:01:41.689Z,19.13
2018-02-20T01:02:41.678Z,19.07
2018-02-20T01:03:41.671Z,19.05
2018-02-20T01:04:41.684Z,19.07
2018-02-20T01:05:41.664Z,19.13
2018-02-20T01:06:41.656Z,19.07
2018-02-20T01:07:41.650Z,19.07
2018-02-20T01:08:41.658Z,19.10
2018-02-20T01:09:41.643Z,19.07
2018-02-20T01:10:41.634Z,19.07
2018-02-20T01:11:41.629Z,19.10
2018-02-20T01:12:41.627Z,19.10
2018-02-20T01:13:41.617Z,18.99
2018-02-20T01:14:41.612Z,19.05
2018-02-20T01:15:41.609Z,19.06
2018-02-20T01:16:41.597Z,19.12
2018-02-20T01:17:41.600Z,19.13
2018-02-20T01:18:41.585Z,19.07
2018-02-20T01:19:41.579Z,19.05
2018-02-20T01:20:41.580Z,19.05
2018-02-20T01:21:41.569Z,19.07
2018-02-20T01:22:41.569Z,18.94
2018-02-20T01:23:41.575Z,19.01
2018-02-20T01:24:41.550Z,19.05
2018-02-20T01:25:41.573Z,18.96
2018-02-20T01:26:41.549Z,18.96
2018-02-20T01:27:41.545Z,19.01
2018-02-20T01:28:41.542Z,19.07
2018-02-20T01:29:41.528Z,19.06
2018-02-20T01:30:41.520Z,18.97
2018-02-20T01:31:41.538Z,19.02
2018-02-20T01:32:41.518Z,19.02
2018-02-20T01:33:41.508Z,18.96
2018-02-20T01:34:41.503Z,18.99
2018-02-20T01:35:41.494Z,18.96
2018-02-20T01:36:41.501Z,18.96
2018-02-20T01:37:41.490Z,18.97
2018-02-20T01:38:41.482Z,18.99
2018-02-20T01:39:41.489Z,18.89
2018-02-20T01:40:41.472Z,18.93
2018-02-20T01:41:41.467Z,19.05
2018-02-20T01:42:41.465Z,18.91
2018-02-20T01:43:41.454Z,19.02
2018-02-20T01:44:41.457Z,19.02
2018-02-20T01:45:41.434Z,18.99
2018-02-20T01:46:41.442Z,18.94
2018-02-20T01:47:41.428Z,19.02
2018-02-20T01:48:41.423Z,19.02
2018-02-20T01:49:41.410Z,19.05
2018-02-20T01:50:41.416Z,18.89
2018-02-20T01:51:41.408Z,18.90
2018-02-20T01:52:41.406Z,18.91
2018-02-20T01:53:41.398Z,18.91
2018-02-20T01:54:41.390Z,18.86
2018-02-20T01:55:41.380Z,18.90
2018-02-20T01:56:41.388Z,18.93
2018-02-20T01:57:41.379Z,18.96
2018-02-20T01:58:41.372Z,18.90
2018-02-20T01:59:41.370Z,18.86
2018-02-20T02:00:41.369Z,18.94
2018-02-20T02:01:41.355Z,18.89
2018-02-20T02:02:41.348Z,18.89
2018-02-20T02:03:41.351Z,18.94
2018-02-20T02:04:41.348Z,18.91
2018-02-20T02:05:41.323Z,18.86
2018-02-20T02:06:41.334Z,18.87
2018-02-20T02:07:41.319Z,19.02
2018-02-20T02:08:41.319Z,19.02
2018-02-20T02:09:41.315Z,18.97
2018-02-20T02:10:41.309Z,18.93
2018-02-20T02:11:41.294Z,18.94
2018-02-20T02:12:41.289Z,18.97
2018-02-20T02:13:41.277Z,19.02
2018-02-20T02:14:41.276Z,19.05
2018-02-20T02:15:41.278Z,19.02
2018-02-20T02:16:41.263Z,19.06
2018-02-20T02:17:41.266Z,19.05
2018-02-20T02:18:41.249Z,19.10
2018-02-20T02:19:41.263Z,19.02
2018-02-20T02:20:41.251Z,18.99
2018-02-20T02:21:41.238Z,19.09
2018-02-20T02:22:41.226Z,19.12
2018-02-20T02:23:41.235Z,19.17
2018-02-20T02:24:41.220Z,19.15
2018-02-20T02:25:41.221Z,19.12
2018-02-20T02:26:41.220Z,19.16
2018-02-20T02:27:41.210Z,19.17
2018-02-20T02:28:41.207Z,19.24
2018-02-20T02:29:41.193Z,19.16
2018-02-20T02:30:41.182Z,19.24
2018-02-20T02:31:41.185Z,19.24
2018-02-20T02:32:41.176Z,19.17
2018-02-20T02:33:41.176Z,19.23
2018-02-20T02:34:41.173Z,19.23
2018-02-20T02:35:41.169Z,19.25
2018-02-20T02:36:41.166Z,19.21
2018-02-20T02:37:41.148Z,19.21
2018-02-20T02:38:41.155Z,19.23
2018-02-20T02:39:41.141Z,19.25
2018-02-20T02:40:41.140Z,19.23
2018-02-20T02:41:41.138Z,19.25
2018-02-20T02:42:41.129Z,19.24
2018-02-20T02:43:41.115Z,19.23
2018-02-20T02:44:41.130Z,19.13
2018-02-20T02:45:41.102Z,19.21
2018-02-20T02:46:41.115Z,19.21
2018-02-20T02:47:41.092Z,19.20
2018-02-20T02:48:41.103Z,19.17
2018-02-20T02:49:41.094Z,19.20
2018-02-20T02:50:41.086Z,19.15
2018-02-20T02:51:41.078Z,19.21
2018-02-20T02:52:41.062Z,19.17
2018-02-20T02:53:41.082Z,19.13
2018-02-20T02:54:41.061Z,19.17
2018-02-20T02:55:41.055Z,19.16
2018-02-20T02:56:41.059Z,19.24
2018-02-20T02:57:41.053Z,19.21
2018-02-20T02:58:41.039Z,19.21
2018-02-20T02:59:41.035Z,19.20
2018-02-20T03:00:41.021Z,19.15
2018-02-20T03:01:41.064Z,19.12
2018-02-20T03:02:41.020Z,19.16
2018-02-20T03:03:41.009Z,19.09
2018-02-20T03:04:41.023Z,19.06
2018-02-20T03:05:41.011Z,19.07
2018-02-20T03:06:40.999Z,19.12
2018-02-20T03:07:40.989Z,19.09
2018-02-20T03:08:40.984Z,19.12
2018-02-20T03:09:40.978Z,19.12
2018-02-20T03:10:40.989Z,19.07
2018-02-20T03:11:40.954Z,19.12
2018-02-20T03:12:40.959Z,19.13
2018-02-20T03:13:40.959Z,19.12
2018-02-20T03:14:40.940Z,19.06
2018-02-20T03:15:40.946Z,19.06
2018-02-20T03:16:40.942Z,19.10
2018-02-20T03:17:40.951Z,19.12
2018-02-20T03:18:40.932Z,19.06
2018-02-20T03:19:40.929Z,19.06
2018-02-20T03:20:40.913Z,19.12
2018-02-20T03:21:40.911Z,19.07
2018-02-20T03:22:40.902Z,19.07
2018-02-20T03:23:40.907Z,19.02
2018-02-20T03:24:40.902Z,19.06
2018-02-20T03:25:40.885Z,19.10
2018-02-20T03:26:40.887Z,19.09
2018-02-20T03:27:40.869Z,19.09
2018-02-20T03:28:40.874Z,19.09
2018-02-20T03:29:40.882Z,19.05
2018-02-20T03:30:40.863Z,19.01
2018-02-20T03:31:40.861Z,18.99
2018-02-20T03:32:40.851Z,19.07
2018-02-20T03:33:40.842Z,19.05
2018-02-20T03:34:40.851Z,19.05
2018-02-20T03:35:40.838Z,19.06
2018-02-20T03:36:40.833Z,19.02
2018-02-20T03:37:40.826Z,19.02
2018-02-20T03:38:40.812Z,19.01
2018-02-20T03:39:40.809Z,19.05
2018-02-20T03:40:40.805Z,19.01
2018-02-20T03:41:40.805Z,19.05
2018-02-20T03:42:40.790Z,18.96
2018-02-20T03:43:40.786Z,19.05
2018-02-20T03:44:40.784Z,19.01
2018-02-20T03:45:40.774Z,19.01
2018-02-20T03:46:40.782Z,19.02
2018-02-20T03:47:40.764Z,18.91
2018-02-20T03:48:40.764Z,18.89
2018-02-20T03:49:40.755Z,19.01
2018-02-20T03:50:40.751Z,18.89
2018-02-20T03:51:40.746Z,18.91
2018-02-20T03:52:40.745Z,19.05
2018-02-20T03:53:40.731Z,18.93
2018-02-20T03:54:40.725Z,18.93
2018-02-20T03:55:40.727Z,18.94
2018-02-20T03:56:40.720Z,18.89
2018-02-20T03:57:40.711Z,18.87
2018-02-20T03:58:40.715Z,18.90
2018-02-20T03:59:40.708Z,18.96
2018-02-20T04:00:40.695Z,18.96
2018-02-20T04:01:40.696Z,18.87
2018-02-20T04:02:40.685Z,18.84
2018-02-20T04:03:40.676Z,18.84
2018-02-20T04:04:40.678Z,18.94
2018-02-20T04:05:40.673Z,18.83
2018-02-20T04:06:40.655Z,18.93
2018-02-20T04:07:40.651Z,18.90
2018-02-20T04:08:40.650Z,18.91
2018-02-20T04:09:40.645Z,18.86
2018-02-20T04:10:40.640Z,18.91
2018-02-20T04:11:40.633Z,18.93
2018-02-20T04:12:40.641Z,18.86
2018-02-20T04:13:40.626Z,18.86
2018-02-20T04:14:40.612Z,18.89
2018-02-20T04:15:40.622Z,18.79
2018-02-20T04:16:40.609Z,18.96
2018-02-20T04:17:40.602Z,18.84
2018-02-20T04:18:40.596Z,18.84
2018-02-20T04:19:40.585Z,18.91
2018-02-20T04:20:40.583Z,18.84
2018-02-20T04:21:40.582Z,18.89
2018-02-20T04:22:40.561Z,18.90
2018-02-20T04:23:40.563Z,18.90
2018-02-20T04:24:40.570Z,18.90
2018-02-20T04:25:40.571Z,18.79
2018-02-20T04:26:40.546Z,18.89
2018-02-20T04:27:40.566Z,18.91
2018-02-20T04:28:40.547Z,18.86
2018-02-20T04:29:40.537Z,18.86
2018-02-20T04:30:40.533Z,18.93
2018-02-20T04:31:40.522Z,18.96
2018-02-20T04:32:40.529Z,18.99
2018-02-20T04:33:40.525Z,18.99
2018-02-20T04:34:40.514Z,19.09
2018-02-20T04:35:40.502Z,18.99
2018-02-20T04:36:40.494Z,19.06
2018-02-20T04:37:40.496Z,19.07
2018-02-20T04:38:40.475Z,19.05
2018-02-20T04:39:40.472Z,19.07
2018-02-20T04:40:40.474Z,19.20
2018-02-20T04:41:40.469Z,19.17
2018-02-20T04:42:40.457Z,19.13
2018-02-20T04:43:40.453Z,19.15
2018-02-20T04:44:40.458Z,19.21
2018-02-20T04:45:40.447Z,19.16
2018-02-20T04:46:40.447Z,19.17
2018-02-20T04:47:40.438Z,19.16
2018-02-20T04:48:40.438Z,19.28
2018-02-20T04:49:40.429Z,19.17
2018-02-20T04:50:40.419Z,19.16
2018-02-20T04:51:40.412Z,19.15
2018-02-20T04:52:40.411Z,19.23
2018-02-20T04:53:40.406Z,19.27
2018-02-20T04:54:40.396Z,19.28
2018-02-20T04:55:40.394Z,19.31
2018-02-20T04:56:40.386Z,19.17
2018-02-20T04:57:40.379Z,19.28
2018-02-20T04:58:40.377Z,19.17
2018-02-20T04:59:40.358Z,19.21
2018-02-20T05:00:40.368Z,19.20
2018-02-20T05:01:40.358Z,19.28
2018-02-20T05:02:40.349Z,19.20
2018-02-20T05:03:40.343Z,19.20
2018-02-20T05:04:40.343Z,19.21
2018-02-20T05:05:40.343Z,19.16
2018-02-20T05:06:40.323Z,19.20
2018-02-20T05:07:40.328Z,19.21
2018-02-20T05:08:40.317Z,19.23
2018-02-20T05:09:40.308Z,19.20
2018-02-20T05:10:40.303Z,19.15
2018-02-20T05:11:40.308Z,19.13
2018-02-20T05:12:40.313Z,19.10
2018-02-20T05:13:40.292Z,19.20
2018-02-20T05:14:40.280Z,19.17
2018-02-20T05:15:40.282Z,19.17
2018-02-20T05:16:40.279Z,19.15
2018-02-20T05:17:40.274Z,19.15
2018-02-20T05:18:40.262Z,19.15
2018-02-20T05:19:40.258Z,19.12
2018-02-20T05:20:40.249Z,19.10
2018-02-20T05:21:40.245Z,19.15
2018-02-20T05:22:40.238Z,19.07
2018-02-20T05:23:40.242Z,19.10
2018-02-20T05:24:40.239Z,19.06
2018-02-20T05:25:40.230Z,19.05
2018-02-20T05:26:40.224Z,19.07
2018-02-20T05:27:40.214Z,19.07
2018-02-20T05:28:40.205Z,19.09
2018-02-20T05:29:40.203Z,19.09
2018-02-20T05:30:40.193Z,19.12
2018-02-20T05:31:40.193Z,19.09
2018-02-20T05:32:40.180Z,19.10
2018-02-20T05:33:40.175Z,19.09
2018-02-20T05:34:40.182Z,19.12
2018-02-20T05:35:40.173Z,19.06
2018-02-20T05:36:40.175Z,19.05
2018-02-20T05:37:40.166Z,19.07
2018-02-20T05:38:40.156Z,19.02
2018-02-20T05:39:40.149Z,19.05
2018-02-20T05:40:40.143Z,19.10
2018-02-20T05:41:40.134Z,19.06
2018-02-20T05:42:40.127Z,19.10
2018-02-20T05:43:40.133Z,19.09
2018-02-20T05:44:40.123Z,19.10
2018-02-20T05:45:40.118Z,19.02
2018-02-20T05:46:40.130Z,19.02
2018-02-20T05:47:40.115Z,19.05
2018-02-20T05:48:40.104Z,19.02
2018-02-20T05:49:40.097Z,19.01
2018-02-20T05:50:40.094Z,19.05
2018-02-20T05:51:40.092Z,18.99
2018-02-20T05:52:40.079Z,18.99
2018-02-20T05:53:40.080Z,18.93
2018-02-20T05:54:40.069Z,18.99
2018-02-20T05:55:40.060Z,18.93
2018-02-20T05:56:40.059Z,19.02
2018-02-20T05:57:40.058Z,18.99
2018-02-20T05:58:40.040Z,18.93
2018-02-20T05:59:40.042Z,18.99
2018-02-20T06:00:40.028Z,18.94
2018-02-20T06:01:40.030Z,18.99
2018-02-20T06:02:40.016Z,18.97
2018-02-20T06:03:40.020Z,18.84
2018-02-20T06:04:40.021Z,18.93
2018-02-20T06:05:40.004Z,18.91
2018-02-20T06:06:39.999Z,18.86
2018-02-20T06:07:39.999Z,18.89
2018-02-20T06:08:39.989Z,18.87
2018-02-20T06:09:40.044Z,18.93
2018-02-20T06:10:39.980Z,18.91
2018-02-20T06:11:39.978Z,18.91
2018-02-20T06:12:39.965Z,18.89
2018-02-20T06:13:39.970Z,18.94
2018-02-20T06:14:39.955Z,18.89
2018-02-20T06:15:39.960Z,18.87
2018-02-20T06:16:39.952Z,18.96
2018-02-20T06:17:39.936Z,18.89
2018-02-20T06:18:39.940Z,18.84
2018-02-20T06:19:39.944Z,18.86
2018-02-20T06:20:39.918Z,18.94
2018-02-20T06:21:39.926Z,18.86
2018-02-20T06:22:39.915Z,18.89
2018-02-20T06:23:39.907Z,18.93
2018-02-20T06:24:39.904Z,18.87
2018-02-20T06:25:39.891Z,18.86
2018-02-20T06:26:39.895Z,18.87
2018-02-20T06:27:39.881Z,18.86
2018-02-20T06:28:39.878Z,18.86
2018-02-20T06:29:39.876Z,18.89
2018-02-20T06:30:39.870Z,18.91
2018-02-20T06:31:39.862Z,18.86
2018-02-20T06:32:39.858Z,18.93
2018-02-20T06:33:39.856Z,18.93
2018-02-20T06:34:39.842Z,18.93
2018-02-20T06:35:39.836Z,18.93
2018-02-20T06:36:39.840Z,18.93
2018-02-20T06:37:39.835Z,18.89
2018-02-20T06:38:39.828Z,18.86
2018-02-20T06:39:39.824Z,18.96
2018-02-20T06:40:39.815Z,18.89
2018-02-20T06:41:39.805Z,18.91
2018-02-20T06:42:39.811Z,18.89
2018-02-20T06:43:39.801Z,18.89
2018-02-20T06:44:39.789Z,18.99
2018-02-20T06:45:39.774Z,18.94
2018-02-20T06:46:39.775Z,18.91
2018-02-20T06:47:39.766Z,18.94
2018-02-20T06:48:39.769Z,18.99
2018-02-20T06:49:39.760Z,19.09
2018-02-20T06:50:39.762Z,19.10
2018-02-20T06:51:39.745Z,19.05
2018-02-20T06:52:39.749Z,19.10
2018-02-20T06:53:39.741Z,19.01
2018-02-20T06:54:39.740Z,19.15
2018-02-20T06:55:39.741Z,19.13
2018-02-20T06:56:39.715Z,19.15
2018-02-20T06:57:39.718Z,19.16
2018-02-20T06:58:39.703Z,19.13
2018-02-20T06:59:39.717Z,19.27
2018-02-20T07:00:39.702Z,19.23
2018-02-20T07:01:39.694Z,19.31
2018-02-20T07:02:39.686Z,19.28
2018-02-20T07:03:39.689Z,19.24
2018-02-20T07:04:39.690Z,19.17
2018-02-20T07:05:39.667Z,19.25
2018-02-20T07:06:39.667Z,19.27
2018-02-20T07:07:39.664Z,19.27
2018-02-20T07:08:39.659Z,19.31
2018-02-20T07:09:39.659Z,19.24
2018-02-20T07:10:39.646Z,19.24
2018-02-20T07:11:39.635Z,19.27
2018-02-20T07:12:39.632Z,19.23
2018-02-20T07:13:39.629Z,19.27
2018-02-20T07:14:39.636Z,19.25
2018-02-20T07:15:39.615Z,19.32
2018-02-20T07:16:39.610Z,19.25
2018-02-20T07:17:39.609Z,19.28
2018-02-20T07:18:39.600Z,19.28
2018-02-20T07:19:39.601Z,19.28
2018-02-20T07:20:39.589Z,19.30
2018-02-20T07:21:39.586Z,19.27
2018-02-20T07:22:39.576Z,19.17
2018-02-20T07:23:39.585Z,19.23
2018-02-20T07:24:39.566Z,19.17
2018-02-20T07:25:39.574Z,19.24
2018-02-20T07:26:39.558Z,19.23
2018-02-20T07:27:39.551Z,19.27
2018-02-20T07:28:39.545Z,19.23
2018-02-20T07:29:39.541Z,19.23
2018-02-20T07:30:39.537Z,19.17
2018-02-20T07:31:39.545Z,19.16
2018-02-20T07:32:39.527Z,19.27
2018-02-20T07:33:39.527Z,19.17
2018-02-20T07:34:39.517Z,19.17
2018-02-20T07:35:39.505Z,19.25
2018-02-20T07:36:39.510Z,19.23
2018-02-20T07:37:39.497Z,19.15
2018-02-20T07:38:39.506Z,19.16
2018-02-20T07:39:39.504Z,19.21
2018-02-20T07:40:39.482Z,19.28
2018-02-20T07:41:39.481Z,19.17
2018-02-20T07:42:39.471Z,19.27
2018-02-20T07:43:39.467Z,19.30
2018-02-20T07:44:39.456Z,19.30
2018-02-20T07:45:39.451Z,19.24
2018-02-20T07:46:39.446Z,19.30
2018-02-20T07:47:39.445Z,19.31
2018-02-20T07:48:39.445Z,19.24
2018-02-20T07:49:39.437Z,19.28
2018-02-20T07:50:39.430Z,19.28
2018-02-20T07:51:39.416Z,19.21
2018-02-20T07:52:39.410Z,19.27
2018-02-20T07:53:39.406Z,19.28
2018-02-20T07:54:39.400Z,19.30
2018-02-20T07:55:39.400Z,19.32
2018-02-20T07:56:39.415Z,19.27
2018-02-20T07:57:39.392Z,19.32
2018-02-20T07:58:39.381Z,19.25
2018-02-20T07:59:39.381Z,19.31
2018-02-20T08:00:39.375Z,19.30
2018-02-20T08:01:39.382Z,19.35
2018-02-20T08:02:39.366Z,19.35
2018-02-20T08:03:39.357Z,19.39
2018-02-20T08:04:39.344Z,19.40
2018-02-20T08:05:39.351Z,19.24
2018-02-20T08:06:39.331Z,19.30
2018-02-20T08:07:39.330Z,19.34
2018-02-20T08:08:39.327Z,19.32
2018-02-20T08:09:39.320Z,19.28
2018-02-20T08:10:39.320Z,19.43
2018-02-20T08:11:39.312Z,19.30
2018-02-20T08:12:39.307Z,19.28
2018-02-20T08:13:39.305Z,19.38
2018-02-20T08:14:39.295Z,19.35
2018-02-20T08:15:39.281Z,19.40
2018-02-20T08:16:39.292Z,19.34
2018-02-20T08:17:39.282Z,19.45
2018-02-20T08:18:39.321Z,19.40
2018-02-20T08:19:39.258Z,19.52
2018-02-20T08:20:39.270Z,19.52
2018-02-20T08:21:39.280Z,19.57
2018-02-20T08:22:39.248Z,19.60
2018-02-20T08:23:39.247Z,19.57
2018-02-20T08:24:39.236Z,19.60
2018-02-20T08:25:39.232Z,19.65
2018-02-20T08:26:39.232Z,19.62
2018-02-20T08:27:39.230Z,19.71
2018-02-20T08:28:39.221Z,19.65
2018-02-20T08:29:39.260Z,19.75
2018-02-20T08:30:39.203Z,19.75
2018-02-20T08:31:39.198Z,19.71
2018-02-20T08:32:39.202Z,19.79
2018-02-20T08:33:39.203Z,19.75
2018-02-20T08:34:39.192Z,19.75
2018-02-20T08:35:39.180Z,19.78
2018-02-20T08:36:39.177Z,19.82
2018-02-20T08:37:39.183Z,19.83
2018-02-20T08:38:39.168Z,19.83
2018-02-20T08:39:39.167Z,19.87
2018-02-20T08:40:39.158Z,19.82
2018-02-20T08:41:39.151Z,19.87
2018-02-20T08:42:39.144Z,19.83
2018-02-20T08:43:39.143Z,19.92
2018-02-20T08:44:39.136Z,19.83
2018-02-20T08:45:39.144Z,19.85
2018-02-20T08:46:39.129Z,19.83
2018-02-20T08:47:39.114Z,19.85
2018-02-20T08:48:39.111Z,19.82
2018-02-20T08:49:39.099Z,19.80
2018-02-20T08:50:39.107Z,19.94
2018-02-20T08:51:39.096Z,19.80
2018-02-20T08:52:39.089Z,19.82
2018-02-20T08:53:39.086Z,19.94
2018-02-20T08:54:39.084Z,19.89
2018-02-20T08:55:39.076Z,19.92
2018-02-20T08:56:39.066Z,19.94
2018-02-20T08:57:39.091Z,19.87
2018-02-20T08:58:39.056Z,19.94
2018-02-20T08:59:39.053Z,19.90
2018-02-20T09:00:39.054Z,19.92
2018-02-20T09:01:39.051Z,19.92
2018-02-20T09:02:39.038Z,20.01
2018-02-20T09:03:39.053Z,20.02
2018-02-20T09:04:39.023Z,20.05
2018-02-20T09:05:39.037Z,20.07
2018-02-20T09:06:39.026Z,20.04
2018-02-20T09:07:39.011Z,20.10
2018-02-20T09:08:39.009Z,20.13
2018-02-20T09:09:39.007Z,20.15
2018-02-20T09:10:38.990Z,20.19
2018-02-20T09:11:38.998Z,20.20
2018-02-20T09:12:38.981Z,20.19
2018-02-20T09:13:38.986Z,20.16
2018-02-20T09:14:38.986Z,20.17
2018-02-20T09:15:38.969Z,20.22
2018-02-20T09:16:38.967Z,20.25
2018-02-20T09:17:38.967Z,20.25
2018-02-20T09:18:38.973Z,20.30
2018-02-20T09:19:38.957Z,20.30
2018-02-20T09:20:38.944Z,20.27
2018-02-20T09:21:38.947Z,20.33
2018-02-20T09:22:38.938Z,20.30
2018-02-20T09:23:38.939Z,20.38
2018-02-20T09:24:38.928Z,20.35
2018-02-20T09:25:38.923Z,20.35
2018-02-20T09:26:38.913Z,20.41
2018-02-20T09:27:38.937Z,20.44
2018-02-20T09:28:38.909Z,20.44
2018-02-20T09:29:38.901Z,20.46
2018-02-20T09:30:38.918Z,20.50
2018-02-20T09:31:38.889Z,20.51
2018-02-20T09:32:38.897Z,20.56
2018-02-20T09:33:38.878Z,20.53
2018-02-20T09:34:38.876Z,20.57
2018-02-20T09:35:38.875Z,20.58
2018-02-20T09:36:38.878Z,20.60
2018-02-20T09:37:38.877Z,20.60
2018-02-20T09:38:38.858Z,20.57
2018-02-20T09:39:38.847Z,20.60
2018-02-20T09:40:38.848Z,20.60
2018-02-20T09:41:38.841Z,20.61
2018-02-20T09:42:38.840Z,20.71
2018-02-20T09:43:38.825Z,20.66
2018-02-20T09:44:38.837Z,20.61
2018-02-20T09:45:38.828Z,20.68
2018-02-20T09:46:38.824Z,20.60
2018-02-20T09:47:38.818Z,20.72
2018-02-20T09:48:38.807Z,20.61
2018-02-20T09:49:38.814Z,20.68
2018-02-20T09:50:38.797Z,20.81
2018-02-20T09:51:38.794Z,20.72
2018-02-20T09:52:38.791Z,20.82
2018-02-20T09:53:38.788Z,20.73
2018-02-20T09:54:38.779Z,20.81
2018-02-20T09:55:38.775Z,20.76
2018-02-20T09:56:38.769Z,20.73
2018-02-20T09:57:38.783Z,20.85
2018-02-20T09:58:38.764Z,20.78
2018-02-20T09:59:38.764Z,20.85
2018-02-20T10:00:38.763Z,20.85
2018-02-20T10:01:38.745Z,20.87
2018-02-20T10:02:38.744Z,20.82
2018-02-20T10:03:38.735Z,20.91
2018-02-20T10:04:38.736Z,20.90
2018-02-20T10:05:38.733Z,20.78
2018-02-20T10:06:38.729Z,20.90
2018-02-20T10:07:38.719Z,20.79
2018-02-20T10:08:38.715Z,20.85
2018-02-20T10:09:38.713Z,20.94
2018-02-20T10:10:38.702Z,20.98
2018-02-20T10:11:38.690Z,20.97
2018-02-20T10:12:38.693Z,20.90
2018-02-20T10:13:38.682Z,20.85
2018-02-20T10:14:38.680Z,20.97
2018-02-20T10:15:38.683Z,20.91
2018-02-20T10:16:38.673Z,20.94
2018-02-20T10:17:38.670Z,20.83
2018-02-20T10:18:38.673Z,20.85
2018-02-20T10:19:38.676Z,20.97
2018-02-20T10:20:38.651Z,20.97
2018-02-20T10:21:38.648Z,20.98
2018-02-20T10:22:38.650Z,20.97
2018-02-20T10:23:38.634Z,20.97
2018-02-20T10:24:38.631Z,21.00
2018-02-20T10:25:38.634Z,20.97
2018-02-20T10:26:38.632Z,20.97
2018-02-20T10:27:38.628Z,21.03
2018-02-20T10:28:38.629Z,21.06
2018-02-20T10:29:38.614Z,21.01
2018-02-20T10:30:38.603Z,20.97
2018-02-20T10:31:38.598Z,21.03
2018-02-20T10:32:38.594Z,21.00
2018-02-20T10:33:38.636Z,20.98
2018-02-20T10:34:38.592Z,21.05
2018-02-20T10:35:38.586Z,20.98
2018-02-20T10:36:38.584Z,21.00
2018-02-20T10:37:38.590Z,21.05
2018-02-20T10:38:38.575Z,20.98
2018-02-20T10:39:38.569Z,21.00
2018-02-20T10:40:38.566Z,20.97
2018-02-20T10:41:38.564Z,21.01
2018-02-20T10:42:38.560Z,21.00
2018-02-20T10:43:38.553Z,20.98
2018-02-20T10:44:38.551Z,21.05
2018-02-20T10:45:38.530Z,20.97
2018-02-20T10:46:38.534Z,21.05
2018-02-20T10:47:38.519Z,21.00
2018-02-20T10:48:38.529Z,21.01
2018-02-20T10:49:38.526Z,21.00
2018-02-20T10:50:38.519Z,20.98
2018-02-20T10:51:38.508Z,21.09
2018-02-20T10:52:38.503Z,21.05
2018-02-20T10:53:38.509Z,21.00
2018-02-20T10:54:38.520Z,20.94
2018-02-20T10:55:38.493Z,21.00
2018-02-20T10:56:38.481Z,21.01
2018-02-20T10:57:38.489Z,20.97
2018-02-20T10:58:38.476Z,20.96
2018-02-20T10:59:38.495Z,20.93
2018-02-20T11:00:38.480Z,20.96
2018-02-20T11:01:38.518Z,20.98
2018-02-20T11:02:38.464Z,20.97
2018-02-20T11:03:38.455Z,20.98
2018-02-20T11:04:38.456Z,20.98
2018-02-20T11:05:38.445Z,20.98
2018-02-20T11:06:38.449Z,20.97
2018-02-20T11:07:38.447Z,20.94
2018-02-20T11:08:38.426Z,20.98
2018-02-20T11:09:38.423Z,20.96
2018-02-20T11:10:38.419Z,20.90
2018-02-20T11:11:38.428Z,20.94
2018-02-20T11:12:38.412Z,20.97
2018-02-20T11:13:38.414Z,20.88
2018-02-20T11:14:38.429Z,20.93
2018-02-20T11:15:38.402Z,20.93
2018-02-20T11:16:38.413Z,20.85
2018-02-20T11:17:38.404Z,20.93
2018-02-20T11:18:38.386Z,20.90
2018-02-20T11:19:38.390Z,20.97
2018-02-20T11:20:38.383Z,20.94
2018-02-20T11:21:38.384Z,20.82
2018-02-20T11:22:38.390Z,20.90
2018-02-20T11:23:38.364Z,20.93
2018-02-20T11:24:38.360Z,20.87
2018-02-20T11:25:38.407Z,20.90
2018-02-20T11:26:38.346Z,20.90
2018-02-20T11:27:38.349Z,20.88
2018-02-20T11:28:38.349Z,20.90
2018-02-20T11:29:38.357Z,20.90
2018-02-20T11:30:38.339Z,20.90
2018-02-20T11:31:38.341Z,20.83
2018-02-20T11:32:38.322Z,20.94
2018-02-20T11:33:38.319Z,20.91
2018-02-20T11:34:38.325Z,20.93
2018-02-20T11:35:38.312Z,20.90
2018-02-20T11:36:38.310Z,20.90
2018-02-20T11:37:38.311Z,20.91
2018-02-20T11:38:38.358Z,20.76
2018-02-20T11:39:38.296Z,20.88
2018-02-20T11:40:38.284Z,20.83
2018-02-20T11:41:38.283Z,20.87
2018-02-20T11:42:38.277Z,20.83
2018-02-20T11:43:38.277Z,20.85
2018-02-20T11:44:38.267Z,20.87
2018-02-20T11:45:38.270Z,20.93
2018-02-20T11:46:38.264Z,20.90
2018-02-20T11:47:38.256Z,20.90
2018-02-20T11:48:38.267Z,20.87
2018-02-20T11:49:38.249Z,20.76
2018-02-20T11:50:38.240Z,20.78
2018-02-20T11:51:38.241Z,20.71
2018-02-20T11:52:38.240Z,20.60
2018-02-20T11:53:38.231Z,20.61
2018-02-20T11:54:38.217Z,20.61
2018-02-20T11:55:38.228Z,20.73
2018-02-20T11:56:38.233Z,20.60
2018-02-20T11:57:38.204Z,20.60
2018-02-20T11:58:38.217Z,20.60
2018-02-20T11:59:38.201Z,20.58
2018-02-20T12:00:38.192Z,20.56
2018-02-20T12:01:38.186Z,20.42
2018-02-20T12:02:38.185Z,20.51
2018-02-20T12:03:38.186Z,20.42
2018-02-20T12:04:38.178Z,20.46
2018-02-20T12:05:38.177Z,20.46
2018-02-20T12:06:38.173Z,20.53
2018-02-20T12:07:38.168Z,20.48
2018-02-20T12:08:38.160Z,20.44
2018-02-20T12:09:38.156Z,20.42
2018-02-20T12:10:38.160Z,20.40
2018-02-20T12:11:38.147Z,20.46
2018-02-20T12:12:38.143Z,20.41
2018-02-20T12:13:38.134Z,20.41
2018-02-20T12:14:38.136Z,20.42
2018-02-20T12:15:38.120Z,20.38
2018-02-20T12:16:38.139Z,20.42
2018-02-20T12:17:38.122Z,20.40
2018-02-20T12:18:38.103Z,20.46
2018-02-20T12:19:38.118Z,20.44
2018-02-20T12:20:38.132Z,20.50
2018-02-20T12:21:38.122Z,20.44
2018-02-20T12:22:38.088Z,20.50
2018-02-20T12:23:38.096Z,20.41
2018-02-20T12:24:38.087Z,20.40
2018-02-20T12:25:38.097Z,20.46
2018-02-20T12:26:38.097Z,20.37
2018-02-20T12:27:38.072Z,20.38
2018-02-20T12:28:38.134Z,20.30
2018-02-20T12:29:38.061Z,20.35
2018-02-20T12:30:38.052Z,20.34
2018-02-20T12:31:38.068Z,20.37
2018-02-20T12:32:38.052Z,20.35
2018-02-20T12:33:38.045Z,20.31
2018-02-20T12:34:38.070Z,20.35
2018-02-20T12:35:38.031Z,20.33
2018-02-20T12:36:38.033Z,20.30
2018-02-20T12:37:38.030Z,20.25
2018-02-20T12:38:38.011Z,20.31
2018-02-20T12:39:38.013Z,20.22
2018-02-20T12:40:38.015Z,20.27
2018-02-20T12:41:38.001Z,20.31
2018-02-20T12:42:37.997Z,20.20
2018-02-20T12:43:37.997Z,20.20
2018-02-20T12:44:37.995Z,20.20
2018-02-20T12:45:37.984Z,20.12
2018-02-20T12:46:37.982Z,20.13
2018-02-20T12:47:37.972Z,20.19
2018-02-20T12:48:37.973Z,20.19
2018-02-20T12:49:37.958Z,20.23
2018-02-20T12:50:37.959Z,20.22
2018-02-20T12:51:37.967Z,20.16
2018-02-20T12:52:37.956Z,20.17